sensor_id;sensor_type;location;lat;lon;timestamp;pressure;altitude;pressure_sealevel;temperature
82297;BMP280;71899;51.992;8.648;2023-09-19T00:00:37;99298.81;;;15.67
82297;BMP280;71899;51.992;8.648;2023-09-19T00:03:03;99299.66;;;15.67
82297;BMP280;71899;51.992;8.648;2023-09-19T00:05:30;99302.97;;;15.69
82297;BMP280;71899;51.992;8.648;2023-09-19T00:08:00;99309.75;;;15.72
82297;BMP280;71899;51.992;8.648;2023-09-19T00:10:30;99309.34;;;15.67
82297;BMP280;71899;51.992;8.648;2023-09-19T00:12:57;99313.50;;;15.69
82297;BMP280;71899;51.992;8.648;2023-09-19T00:15:24;99319.06;;;15.66
82297;BMP280;71899;51.992;8.648;2023-09-19T00:17:51;99320.06;;;15.65
82297;BMP280;71899;51.992;8.648;2023-09-19T00:20:18;99314.09;;;15.63
82297;BMP280;71899;51.992;8.648;2023-09-19T00:22:44;99329.75;;;15.65
82297;BMP280;71899;51.992;8.648;2023-09-19T00:25:10;99327.50;;;15.70
82297;BMP280;71899;51.992;8.648;2023-09-19T00:27:38;99326.91;;;15.76
82297;BMP280;71899;51.992;8.648;2023-09-19T00:30:09;99337.59;;;15.74
82297;BMP280;71899;51.992;8.648;2023-09-19T00:32:45;99331.03;;;15.78
82297;BMP280;71899;51.992;8.648;2023-09-19T00:35:15;99337.81;;;15.81
82297;BMP280;71899;51.992;8.648;2023-09-19T00:37:41;99341.44;;;15.80
82297;BMP280;71899;51.992;8.648;2023-09-19T00:40:08;99340.84;;;15.86
82297;BMP280;71899;51.992;8.648;2023-09-19T00:42:44;99341.34;;;16.07
82297;BMP280;71899;51.992;8.648;2023-09-19T00:45:11;99345.44;;;16.19
82297;BMP280;71899;51.992;8.648;2023-09-19T00:47:39;99345.88;;;16.15
82297;BMP280;71899;51.992;8.648;2023-09-19T00:50:06;99346.78;;;16.06
82297;BMP280;71899;51.992;8.648;2023-09-19T00:52:34;99340.75;;;15.96
82297;BMP280;71899;51.992;8.648;2023-09-19T00:55:02;99348.34;;;15.99
82297;BMP280;71899;51.992;8.648;2023-09-19T00:57:28;99352.75;;;15.90
82297;BMP280;71899;51.992;8.648;2023-09-19T01:00:00;99347.59;;;15.88
82297;BMP280;71899;51.992;8.648;2023-09-19T01:02:26;99356.13;;;15.82
82297;BMP280;71899;51.992;8.648;2023-09-19T01:04:55;99365.69;;;15.83
82297;BMP280;71899;51.992;8.648;2023-09-19T01:07:21;99363.34;;;15.80
82297;BMP280;71899;51.992;8.648;2023-09-19T01:09:49;99370.56;;;15.96
82297;BMP280;71899;51.992;8.648;2023-09-19T01:12:19;99369.31;;;16.00
82297;BMP280;71899;51.992;8.648;2023-09-19T01:14:56;99366.66;;;16.18
82297;BMP280;71899;51.992;8.648;2023-09-19T01:17:43;99372.53;;;16.29
82297;BMP280;71899;51.992;8.648;2023-09-19T01:23:23;99375.75;;;16.23
82297;BMP280;71899;51.992;8.648;2023-09-19T01:26:08;99376.22;;;16.19
82297;BMP280;71899;51.992;8.648;2023-09-19T01:28:45;99372.16;;;16.07
82297;BMP280;71899;51.992;8.648;2023-09-19T01:31:21;99376.50;;;15.98
82297;BMP280;71899;51.992;8.648;2023-09-19T01:34:02;99376.59;;;16.24
82297;BMP280;71899;51.992;8.648;2023-09-19T01:36:35;99377.50;;;16.15
82297;BMP280;71899;51.992;8.648;2023-09-19T01:39:03;99386.69;;;16.11
82297;BMP280;71899;51.992;8.648;2023-09-19T01:41:48;99391.28;;;16.09
82297;BMP280;71899;51.992;8.648;2023-09-19T01:44:51;99395.34;;;16.21
82297;BMP280;71899;51.992;8.648;2023-09-19T01:47:23;99400.78;;;16.37
82297;BMP280;71899;51.992;8.648;2023-09-19T01:50:13;99403.66;;;16.26
82297;BMP280;71899;51.992;8.648;2023-09-19T01:52:47;99404.97;;;15.95
82297;BMP280;71899;51.992;8.648;2023-09-19T01:55:15;99411.06;;;15.77
82297;BMP280;71899;51.992;8.648;2023-09-19T02:00:20;99412.56;;;15.62
82297;BMP280;71899;51.992;8.648;2023-09-19T02:02:47;99409.81;;;15.81
82297;BMP280;71899;51.992;8.648;2023-09-19T02:05:13;99414.91;;;15.65
82297;BMP280;71899;51.992;8.648;2023-09-19T02:07:46;99418.00;;;15.78
82297;BMP280;71899;51.992;8.648;2023-09-19T02:10:12;99417.91;;;15.70
82297;BMP280;71899;51.992;8.648;2023-09-19T02:12:37;99424.13;;;15.79
82297;BMP280;71899;51.992;8.648;2023-09-19T02:15:03;99428.44;;;15.70
82297;BMP280;71899;51.992;8.648;2023-09-19T02:17:32;99432.66;;;15.63
82297;BMP280;71899;51.992;8.648;2023-09-19T02:19:57;99431.47;;;15.75
82297;BMP280;71899;51.992;8.648;2023-09-19T02:22:24;99440.66;;;15.71
82297;BMP280;71899;51.992;8.648;2023-09-19T02:24:50;99435.19;;;15.82
82297;BMP280;71899;51.992;8.648;2023-09-19T02:27:16;99433.91;;;15.86
82297;BMP280;71899;51.992;8.648;2023-09-19T02:29:42;99436.22;;;15.72
82297;BMP280;71899;51.992;8.648;2023-09-19T02:32:08;99434.75;;;15.87
82297;BMP280;71899;51.992;8.648;2023-09-19T02:34:35;99443.16;;;15.73
82297;BMP280;71899;51.992;8.648;2023-09-19T02:37:05;99431.31;;;15.77
82297;BMP280;71899;51.992;8.648;2023-09-19T02:39:31;99432.16;;;15.77
82297;BMP280;71899;51.992;8.648;2023-09-19T02:41:56;99424.34;;;15.85
82297;BMP280;71899;51.992;8.648;2023-09-19T02:44:22;99426.66;;;15.71
82297;BMP280;71899;51.992;8.648;2023-09-19T02:46:50;99425.81;;;15.70
82297;BMP280;71899;51.992;8.648;2023-09-19T02:49:16;99433.34;;;15.65
82297;BMP280;71899;51.992;8.648;2023-09-19T02:51:42;99428.75;;;15.67
82297;BMP280;71899;51.992;8.648;2023-09-19T02:54:08;99434.97;;;15.66
82297;BMP280;71899;51.992;8.648;2023-09-19T02:56:33;99440.63;;;15.54
82297;BMP280;71899;51.992;8.648;2023-09-19T02:59:00;99442.41;;;15.53
82297;BMP280;71899;51.992;8.648;2023-09-19T03:01:26;99449.09;;;15.38
82297;BMP280;71899;51.992;8.648;2023-09-19T03:03:54;99442.72;;;15.41
82297;BMP280;71899;51.992;8.648;2023-09-19T03:06:20;99443.66;;;15.49
82297;BMP280;71899;51.992;8.648;2023-09-19T03:08:47;99448.75;;;15.60
82297;BMP280;71899;51.992;8.648;2023-09-19T03:11:14;99447.41;;;15.47
82297;BMP280;71899;51.992;8.648;2023-09-19T03:13:44;99452.56;;;15.38
82297;BMP280;71899;51.992;8.648;2023-09-19T03:16:11;99455.25;;;15.29
82297;BMP280;71899;51.992;8.648;2023-09-19T03:18:37;99450.75;;;15.39
82297;BMP280;71899;51.992;8.648;2023-09-19T03:21:02;99460.88;;;15.34
82297;BMP280;71899;51.992;8.648;2023-09-19T03:23:28;99462.00;;;15.31
82297;BMP280;71899;51.992;8.648;2023-09-19T03:25:55;99464.34;;;15.34
82297;BMP280;71899;51.992;8.648;2023-09-19T03:28:22;99466.13;;;15.53
82297;BMP280;71899;51.992;8.648;2023-09-19T03:30:58;99468.88;;;15.61
82297;BMP280;71899;51.992;8.648;2023-09-19T03:33:24;99478.94;;;15.29
82297;BMP280;71899;51.992;8.648;2023-09-19T03:35:53;99482.72;;;15.07
82297;BMP280;71899;51.992;8.648;2023-09-19T03:38:19;99474.13;;;15.15
82297;BMP280;71899;51.992;8.648;2023-09-19T03:40:45;99476.50;;;15.08
82297;BMP280;71899;51.992;8.648;2023-09-19T03:43:10;99472.78;;;15.01
82297;BMP280;71899;51.992;8.648;2023-09-19T03:45:35;99472.53;;;14.95
82297;BMP280;71899;51.992;8.648;2023-09-19T03:48:01;99462.69;;;14.97
82297;BMP280;71899;51.992;8.648;2023-09-19T03:50:26;99471.94;;;15.01
82297;BMP280;71899;51.992;8.648;2023-09-19T03:52:57;99470.00;;;15.03
82297;BMP280;71899;51.992;8.648;2023-09-19T03:55:22;99473.19;;;14.97
82297;BMP280;71899;51.992;8.648;2023-09-19T03:57:48;99472.88;;;15.09
82297;BMP280;71899;51.992;8.648;2023-09-19T04:00:15;99475.25;;;15.12
82297;BMP280;71899;51.992;8.648;2023-09-19T04:02:43;99480.78;;;15.09
82297;BMP280;71899;51.992;8.648;2023-09-19T04:05:09;99479.69;;;15.12
82297;BMP280;71899;51.992;8.648;2023-09-19T04:07:35;99484.34;;;15.27
82297;BMP280;71899;51.992;8.648;2023-09-19T04:10:01;99477.47;;;15.07
82297;BMP280;71899;51.992;8.648;2023-09-19T04:12:28;99481.66;;;14.81
82297;BMP280;71899;51.992;8.648;2023-09-19T04:14:53;99481.66;;;14.91
82297;BMP280;71899;51.992;8.648;2023-09-19T04:17:18;99479.88;;;14.81
82297;BMP280;71899;51.992;8.648;2023-09-19T04:19:44;99480.84;;;14.71
82297;BMP280;71899;51.992;8.648;2023-09-19T04:22:10;99482.38;;;14.54
82297;BMP280;71899;51.992;8.648;2023-09-19T04:24:37;99478.50;;;14.39
82297;BMP280;71899;51.992;8.648;2023-09-19T04:27:04;99484.19;;;14.44
82297;BMP280;71899;51.992;8.648;2023-09-19T04:29:29;99498.44;;;14.61
82297;BMP280;71899;51.992;8.648;2023-09-19T04:31:55;99504.13;;;14.66
82297;BMP280;71899;51.992;8.648;2023-09-19T04:34:21;99501.75;;;14.82
82297;BMP280;71899;51.992;8.648;2023-09-19T04:36:47;99506.13;;;15.10
82297;BMP280;71899;51.992;8.648;2023-09-19T04:39:12;99511.22;;;15.31
82297;BMP280;71899;51.992;8.648;2023-09-19T04:41:38;99509.19;;;15.15
82297;BMP280;71899;51.992;8.648;2023-09-19T04:44:06;99517.63;;;15.09
82297;BMP280;71899;51.992;8.648;2023-09-19T04:46:31;99511.28;;;15.02
82297;BMP280;71899;51.992;8.648;2023-09-19T04:48:56;99524.47;;;14.83
82297;BMP280;71899;51.992;8.648;2023-09-19T04:51:22;99517.13;;;14.77
82297;BMP280;71899;51.992;8.648;2023-09-19T04:53:48;99518.09;;;14.57
82297;BMP280;71899;51.992;8.648;2023-09-19T04:56:14;99525.03;;;14.48
82297;BMP280;71899;51.992;8.648;2023-09-19T04:58:40;99524.81;;;14.30
82297;BMP280;71899;51.992;8.648;2023-09-19T05:01:05;99532.56;;;14.32
82297;BMP280;71899;51.992;8.648;2023-09-19T05:03:30;99531.16;;;14.18
82297;BMP280;71899;51.992;8.648;2023-09-19T05:05:56;99552.31;;;14.17
82297;BMP280;71899;51.992;8.648;2023-09-19T05:08:21;99545.84;;;14.21
82297;BMP280;71899;51.992;8.648;2023-09-19T05:10:47;99559.53;;;14.24
82297;BMP280;71899;51.992;8.648;2023-09-19T05:13:14;99566.28;;;14.08
82297;BMP280;71899;51.992;8.648;2023-09-19T05:15:39;99556.97;;;13.94
82297;BMP280;71899;51.992;8.648;2023-09-19T05:18:05;99562.22;;;13.94
82297;BMP280;71899;51.992;8.648;2023-09-19T05:20:32;99563.75;;;13.97
82297;BMP280;71899;51.992;8.648;2023-09-19T05:23:06;99560.44;;;13.95
82297;BMP280;71899;51.992;8.648;2023-09-19T05:25:35;99555.75;;;13.98
82297;BMP280;71899;51.992;8.648;2023-09-19T05:28:09;99557.91;;;13.83
82297;BMP280;71899;51.992;8.648;2023-09-19T05:30:36;99557.34;;;13.80
82297;BMP280;71899;51.992;8.648;2023-09-19T05:33:04;99567.44;;;13.84
82297;BMP280;71899;51.992;8.648;2023-09-19T05:35:31;99585.91;;;13.73
82297;BMP280;71899;51.992;8.648;2023-09-19T05:37:57;99591.94;;;13.64
82297;BMP280;71899;51.992;8.648;2023-09-19T05:40:23;99586.75;;;13.74
82297;BMP280;71899;51.992;8.648;2023-09-19T05:42:49;99599.44;;;13.69
82297;BMP280;71899;51.992;8.648;2023-09-19T05:45:16;99601.25;;;13.68
82297;BMP280;71899;51.992;8.648;2023-09-19T05:47:47;99606.69;;;13.76
82297;BMP280;71899;51.992;8.648;2023-09-19T05:50:12;99601.50;;;13.65
82297;BMP280;71899;51.992;8.648;2023-09-19T05:52:40;99606.09;;;13.73
82297;BMP280;71899;51.992;8.648;2023-09-19T05:55:09;99607.06;;;13.72
82297;BMP280;71899;51.992;8.648;2023-09-19T05:57:36;99607.81;;;13.83
82297;BMP280;71899;51.992;8.648;2023-09-19T06:00:05;99615.97;;;13.80
82297;BMP280;71899;51.992;8.648;2023-09-19T06:02:37;99616.97;;;13.89
82297;BMP280;71899;51.992;8.648;2023-09-19T06:05:05;99624.72;;;13.90
82297;BMP280;71899;51.992;8.648;2023-09-19T06:07:34;99641.66;;;14.07
82297;BMP280;71899;51.992;8.648;2023-09-19T06:10:03;99639.88;;;14.08
82297;BMP280;71899;51.992;8.648;2023-09-19T06:12:31;99627.47;;;14.19
82297;BMP280;71899;51.992;8.648;2023-09-19T06:14:58;99628.56;;;14.17
82297;BMP280;71899;51.992;8.648;2023-09-19T06:17:24;99619.47;;;14.30
82297;BMP280;71899;51.992;8.648;2023-09-19T06:19:49;99618.31;;;14.44
82297;BMP280;71899;51.992;8.648;2023-09-19T06:22:16;99607.91;;;14.52
82297;BMP280;71899;51.992;8.648;2023-09-19T06:24:44;99608.63;;;14.54
82297;BMP280;71899;51.992;8.648;2023-09-19T06:27:09;99611.94;;;14.56
82297;BMP280;71899;51.992;8.648;2023-09-19T06:29:34;99604.66;;;14.69
82297;BMP280;71899;51.992;8.648;2023-09-19T06:32:06;99598.00;;;14.75
82297;BMP280;71899;51.992;8.648;2023-09-19T06:34:31;99602.59;;;15.11
82297;BMP280;71899;51.992;8.648;2023-09-19T06:36:58;99603.50;;;15.39
82297;BMP280;71899;51.992;8.648;2023-09-19T06:39:23;99590.63;;;15.55
82297;BMP280;71899;51.992;8.648;2023-09-19T06:41:51;99593.94;;;16.04
82297;BMP280;71899;51.992;8.648;2023-09-19T06:44:18;99592.81;;;17.14
82297;BMP280;71899;51.992;8.648;2023-09-19T06:46:44;99597.59;;;18.55
82297;BMP280;71899;51.992;8.648;2023-09-19T06:49:11;99595.50;;;19.23
82297;BMP280;71899;51.992;8.648;2023-09-19T06:51:38;99593.38;;;19.03
82297;BMP280;71899;51.992;8.648;2023-09-19T06:54:03;99606.94;;;18.42
82297;BMP280;71899;51.992;8.648;2023-09-19T06:56:30;99599.88;;;18.50
82297;BMP280;71899;51.992;8.648;2023-09-19T06:58:57;99603.69;;;17.54
82297;BMP280;71899;51.992;8.648;2023-09-19T07:01:22;99596.81;;;17.61
82297;BMP280;71899;51.992;8.648;2023-09-19T07:03:47;99608.69;;;17.83
82297;BMP280;71899;51.992;8.648;2023-09-19T07:06:13;99608.72;;;17.22
82297;BMP280;71899;51.992;8.648;2023-09-19T07:08:38;99613.00;;;16.88
82297;BMP280;71899;51.992;8.648;2023-09-19T07:11:03;99617.00;;;16.56
82297;BMP280;71899;51.992;8.648;2023-09-19T07:13:31;99613.63;;;16.27
82297;BMP280;71899;51.992;8.648;2023-09-19T07:15:58;99609.31;;;16.35
82297;BMP280;71899;51.992;8.648;2023-09-19T07:18:25;99620.25;;;16.13
82297;BMP280;71899;51.992;8.648;2023-09-19T07:20:50;99633.22;;;15.87
82297;BMP280;71899;51.992;8.648;2023-09-19T07:23:17;99634.66;;;15.82
82297;BMP280;71899;51.992;8.648;2023-09-19T07:25:43;99636.31;;;15.83
82297;BMP280;71899;51.992;8.648;2023-09-19T07:28:09;99645.41;;;15.98
82297;BMP280;71899;51.992;8.648;2023-09-19T07:30:38;99657.19;;;16.04
82297;BMP280;71899;51.992;8.648;2023-09-19T07:33:05;99637.97;;;16.58
82297;BMP280;71899;51.992;8.648;2023-09-19T07:35:30;99645.09;;;16.93
82297;BMP280;71899;51.992;8.648;2023-09-19T07:37:56;99661.44;;;17.93
82297;BMP280;71899;51.992;8.648;2023-09-19T07:40:21;99655.97;;;17.86
82297;BMP280;71899;51.992;8.648;2023-09-19T07:42:48;99657.56;;;18.05
82297;BMP280;71899;51.992;8.648;2023-09-19T07:45:14;99646.31;;;18.45
82297;BMP280;71899;51.992;8.648;2023-09-19T07:47:49;99647.34;;;19.34
82297;BMP280;71899;51.992;8.648;2023-09-19T07:50:19;99644.41;;;20.71
82297;BMP280;71899;51.992;8.648;2023-09-19T07:52:45;99644.09;;;20.36
82297;BMP280;71899;51.992;8.648;2023-09-19T07:55:11;99641.72;;;19.86
82297;BMP280;71899;51.992;8.648;2023-09-19T07:57:41;99657.28;;;19.16
82297;BMP280;71899;51.992;8.648;2023-09-19T08:00:08;99652.34;;;19.21
82297;BMP280;71899;51.992;8.648;2023-09-19T08:02:39;99649.34;;;19.16
82297;BMP280;71899;51.992;8.648;2023-09-19T08:05:14;99649.81;;;18.95
82297;BMP280;71899;51.992;8.648;2023-09-19T08:07:44;99647.69;;;19.23
82297;BMP280;71899;51.992;8.648;2023-09-19T08:10:17;99651.03;;;18.51
82297;BMP280;71899;51.992;8.648;2023-09-19T08:12:46;99657.19;;;18.33
82297;BMP280;71899;51.992;8.648;2023-09-19T08:15:15;99647.44;;;18.68
82297;BMP280;71899;51.992;8.648;2023-09-19T08:17:41;99637.25;;;18.13
82297;BMP280;71899;51.992;8.648;2023-09-19T08:20:08;99646.81;;;18.06
82297;BMP280;71899;51.992;8.648;2023-09-19T08:22:42;99648.03;;;18.20
82297;BMP280;71899;51.992;8.648;2023-09-19T08:25:08;99646.03;;;18.14
82297;BMP280;71899;51.992;8.648;2023-09-19T08:27:34;99647.91;;;18.21
82297;BMP280;71899;51.992;8.648;2023-09-19T08:30:01;99649.47;;;18.40
82297;BMP280;71899;51.992;8.648;2023-09-19T08:32:28;99656.88;;;18.03
82297;BMP280;71899;51.992;8.648;2023-09-19T08:34:53;99668.28;;;18.37
82297;BMP280;71899;51.992;8.648;2023-09-19T08:37:19;99655.88;;;18.71
82297;BMP280;71899;51.992;8.648;2023-09-19T08:39:44;99665.94;;;18.26
82297;BMP280;71899;51.992;8.648;2023-09-19T08:42:09;99667.44;;;18.28
82297;BMP280;71899;51.992;8.648;2023-09-19T08:44:37;99671.97;;;18.78
82297;BMP280;71899;51.992;8.648;2023-09-19T08:47:10;99673.59;;;18.03
82297;BMP280;71899;51.992;8.648;2023-09-19T08:50:01;99671.66;;;17.62
82297;BMP280;71899;51.992;8.648;2023-09-19T08:52:37;99679.31;;;17.73
82297;BMP280;71899;51.992;8.648;2023-09-19T08:55:06;99679.00;;;18.02
82297;BMP280;71899;51.992;8.648;2023-09-19T08:57:33;99662.53;;;17.82
82297;BMP280;71899;51.992;8.648;2023-09-19T09:00:02;99672.47;;;18.40
82297;BMP280;71899;51.992;8.648;2023-09-19T09:02:31;99681.13;;;18.24
82297;BMP280;71899;51.992;8.648;2023-09-19T09:04:59;99673.97;;;18.08
82297;BMP280;71899;51.992;8.648;2023-09-19T09:07:25;99682.97;;;17.54
82297;BMP280;71899;51.992;8.648;2023-09-19T09:09:52;99682.66;;;18.01
82297;BMP280;71899;51.992;8.648;2023-09-19T09:12:18;99684.22;;;18.45
82297;BMP280;71899;51.992;8.648;2023-09-19T09:14:45;99680.81;;;18.53
82297;BMP280;71899;51.992;8.648;2023-09-19T09:17:12;99683.72;;;18.83
82297;BMP280;71899;51.992;8.648;2023-09-19T09:19:38;99685.75;;;19.06
82297;BMP280;71899;51.992;8.648;2023-09-19T09:22:07;99688.09;;;19.17
82297;BMP280;71899;51.992;8.648;2023-09-19T09:24:33;99681.03;;;19.50
82297;BMP280;71899;51.992;8.648;2023-09-19T09:26:59;99670.91;;;19.45
82297;BMP280;71899;51.992;8.648;2023-09-19T09:29:48;99674.19;;;19.23
82297;BMP280;71899;51.992;8.648;2023-09-19T09:32:27;99669.72;;;19.31
82297;BMP280;71899;51.992;8.648;2023-09-19T09:34:57;99680.16;;;19.17
82297;BMP280;71899;51.992;8.648;2023-09-19T09:37:24;99673.44;;;18.80
82297;BMP280;71899;51.992;8.648;2023-09-19T09:39:59;99681.94;;;18.92
82297;BMP280;71899;51.992;8.648;2023-09-19T09:42:44;99682.13;;;19.07
82297;BMP280;71899;51.992;8.648;2023-09-19T09:45:21;99679.22;;;19.42
82297;BMP280;71899;51.992;8.648;2023-09-19T09:47:54;99681.09;;;18.92
82297;BMP280;71899;51.992;8.648;2023-09-19T09:50:27;99675.97;;;18.90
82297;BMP280;71899;51.992;8.648;2023-09-19T09:53:07;99672.38;;;19.23
82297;BMP280;71899;51.992;8.648;2023-09-19T09:56:09;99676.88;;;19.63
82297;BMP280;71899;51.992;8.648;2023-09-19T09:58:38;99681.19;;;19.40
82297;BMP280;71899;51.992;8.648;2023-09-19T10:01:14;99682.66;;;19.18
82297;BMP280;71899;51.992;8.648;2023-09-19T10:03:41;99692.19;;;18.95
82297;BMP280;71899;51.992;8.648;2023-09-19T10:06:14;99673.78;;;18.77
82297;BMP280;71899;51.992;8.648;2023-09-19T10:09:07;99665.22;;;19.16
82297;BMP280;71899;51.992;8.648;2023-09-19T10:11:39;99668.72;;;19.41
82297;BMP280;71899;51.992;8.648;2023-09-19T10:14:07;99654.66;;;19.40
82297;BMP280;71899;51.992;8.648;2023-09-19T10:16:35;99663.59;;;19.31
82297;BMP280;71899;51.992;8.648;2023-09-19T10:19:07;99673.53;;;19.21
82297;BMP280;71899;51.992;8.648;2023-09-19T10:21:34;99685.13;;;19.20
82297;BMP280;71899;51.992;8.648;2023-09-19T10:24:02;99681.47;;;19.21
82297;BMP280;71899;51.992;8.648;2023-09-19T10:26:34;99681.28;;;19.06
82297;BMP280;71899;51.992;8.648;2023-09-19T10:29:01;99680.34;;;19.31
82297;BMP280;71899;51.992;8.648;2023-09-19T10:31:29;99680.59;;;18.88
82297;BMP280;71899;51.992;8.648;2023-09-19T10:34:02;99682.56;;;18.86
82297;BMP280;71899;51.992;8.648;2023-09-19T10:36:32;99692.88;;;19.05
82297;BMP280;71899;51.992;8.648;2023-09-19T10:39:00;99684.81;;;19.39
82297;BMP280;71899;51.992;8.648;2023-09-19T10:41:30;99691.16;;;19.46
82297;BMP280;71899;51.992;8.648;2023-09-19T10:44:03;99688.47;;;19.78
82297;BMP280;71899;51.992;8.648;2023-09-19T10:46:34;99682.03;;;19.49
82297;BMP280;71899;51.992;8.648;2023-09-19T10:49:00;99686.31;;;19.74
82297;BMP280;71899;51.992;8.648;2023-09-19T10:51:29;99681.59;;;20.24
82297;BMP280;71899;51.992;8.648;2023-09-19T10:54:05;99668.47;;;20.31
82297;BMP280;71899;51.992;8.648;2023-09-19T10:56:34;99673.50;;;20.10
82297;BMP280;71899;51.992;8.648;2023-09-19T10:59:10;99676.13;;;20.18
82297;BMP280;71899;51.992;8.648;2023-09-19T11:01:43;99669.72;;;20.51
82297;BMP280;71899;51.992;8.648;2023-09-19T11:04:22;99664.91;;;20.86
82297;BMP280;71899;51.992;8.648;2023-09-19T11:09:49;99666.44;;;21.56
82297;BMP280;71899;51.992;8.648;2023-09-19T11:15:07;99650.72;;;20.40
82297;BMP280;71899;51.992;8.648;2023-09-19T11:30:50;99640.72;;;21.11
82297;BMP280;71899;51.992;8.648;2023-09-19T11:33:29;99647.03;;;21.02
82297;BMP280;71899;51.992;8.648;2023-09-19T11:36:13;99650.97;;;19.98
82297;BMP280;71899;51.992;8.648;2023-09-19T11:46:55;99634.34;;;20.90
82297;BMP280;71899;51.992;8.648;2023-09-19T11:49:29;99629.94;;;21.50
82297;BMP280;71899;51.992;8.648;2023-09-19T11:51:56;99628.28;;;21.04
82297;BMP280;71899;51.992;8.648;2023-09-19T11:54:21;99623.41;;;21.53
82297;BMP280;71899;51.992;8.648;2023-09-19T11:56:51;99624.06;;;22.07
82297;BMP280;71899;51.992;8.648;2023-09-19T11:59:38;99618.66;;;21.77
82297;BMP280;71899;51.992;8.648;2023-09-19T12:02:05;99637.03;;;21.87
82297;BMP280;71899;51.992;8.648;2023-09-19T12:04:42;99643.44;;;21.41
82297;BMP280;71899;51.992;8.648;2023-09-19T12:07:12;99650.41;;;21.64
82297;BMP280;71899;51.992;8.648;2023-09-19T12:09:51;99657.94;;;21.15
82297;BMP280;71899;51.992;8.648;2023-09-19T12:12:27;99651.38;;;21.26
82297;BMP280;71899;51.992;8.648;2023-09-19T12:14:53;99639.84;;;21.34
82297;BMP280;71899;51.992;8.648;2023-09-19T12:17:19;99650.84;;;21.53
82297;BMP280;71899;51.992;8.648;2023-09-19T12:19:51;99643.50;;;22.07
82297;BMP280;71899;51.992;8.648;2023-09-19T12:22:16;99636.72;;;21.53
82297;BMP280;71899;51.992;8.648;2023-09-19T12:24:43;99632.81;;;20.95
82297;BMP280;71899;51.992;8.648;2023-09-19T12:27:09;99627.41;;;20.58
82297;BMP280;71899;51.992;8.648;2023-09-19T12:29:47;99625.38;;;20.60
82297;BMP280;71899;51.992;8.648;2023-09-19T12:32:16;99622.84;;;20.97
82297;BMP280;71899;51.992;8.648;2023-09-19T12:34:42;99621.66;;;21.00
82297;BMP280;71899;51.992;8.648;2023-09-19T12:37:15;99645.25;;;20.72
82297;BMP280;71899;51.992;8.648;2023-09-19T12:39:47;99622.97;;;20.73
82297;BMP280;71899;51.992;8.648;2023-09-19T12:42:19;99627.91;;;21.52
82297;BMP280;71899;51.992;8.648;2023-09-19T12:44:46;99612.13;;;21.51
82297;BMP280;71899;51.992;8.648;2023-09-19T12:47:16;99606.69;;;21.44
82297;BMP280;71899;51.992;8.648;2023-09-19T12:50:14;99603.31;;;21.50
82297;BMP280;71899;51.992;8.648;2023-09-19T12:52:45;99596.91;;;21.59
82297;BMP280;71899;51.992;8.648;2023-09-19T12:58:12;99605.69;;;21.45
82297;BMP280;71899;51.992;8.648;2023-09-19T13:00:42;99613.44;;;21.09
82297;BMP280;71899;51.992;8.648;2023-09-19T13:03:12;99600.97;;;21.10
82297;BMP280;71899;51.992;8.648;2023-09-19T13:06:00;99587.34;;;21.36
82297;BMP280;71899;51.992;8.648;2023-09-19T13:08:32;99601.16;;;21.31
82297;BMP280;71899;51.992;8.648;2023-09-19T13:11:11;99590.84;;;21.13
82297;BMP280;71899;51.992;8.648;2023-09-19T13:13:42;99597.19;;;20.82
82297;BMP280;71899;51.992;8.648;2023-09-19T13:16:09;99592.03;;;20.80
82297;BMP280;71899;51.992;8.648;2023-09-19T13:18:48;99597.50;;;21.32
82297;BMP280;71899;51.992;8.648;2023-09-19T13:21:16;99581.59;;;21.47
82297;BMP280;71899;51.992;8.648;2023-09-19T13:23:56;99577.94;;;21.77
82297;BMP280;71899;51.992;8.648;2023-09-19T13:26:25;99586.56;;;21.64
82297;BMP280;71899;51.992;8.648;2023-09-19T13:28:51;99585.72;;;21.64
82297;BMP280;71899;51.992;8.648;2023-09-19T13:31:16;99579.88;;;21.68
82297;BMP280;71899;51.992;8.648;2023-09-19T13:33:43;99598.91;;;21.43
82297;BMP280;71899;51.992;8.648;2023-09-19T13:36:10;99586.28;;;21.74
82297;BMP280;71899;51.992;8.648;2023-09-19T13:38:35;99585.00;;;22.29
82297;BMP280;71899;51.992;8.648;2023-09-19T13:41:00;99579.31;;;22.32
82297;BMP280;71899;51.992;8.648;2023-09-19T13:43:26;99588.63;;;22.06
82297;BMP280;71899;51.992;8.648;2023-09-19T13:45:51;99572.72;;;21.98
82297;BMP280;71899;51.992;8.648;2023-09-19T13:48:17;99583.34;;;21.54
82297;BMP280;71899;51.992;8.648;2023-09-19T13:50:45;99591.78;;;21.20
82297;BMP280;71899;51.992;8.648;2023-09-19T13:53:11;99581.66;;;20.70
82297;BMP280;71899;51.992;8.648;2023-09-19T13:55:37;99584.03;;;20.88
82297;BMP280;71899;51.992;8.648;2023-09-19T13:58:03;99583.53;;;21.67
82297;BMP280;71899;51.992;8.648;2023-09-19T14:00:30;99585.25;;;22.48
82297;BMP280;71899;51.992;8.648;2023-09-19T14:03:02;99564.88;;;22.41
82297;BMP280;71899;51.992;8.648;2023-09-19T14:05:29;99566.41;;;22.50
82297;BMP280;71899;51.992;8.648;2023-09-19T14:07:54;99576.75;;;21.94
82297;BMP280;71899;51.992;8.648;2023-09-19T14:10:21;99573.75;;;21.97
82297;BMP280;71899;51.992;8.648;2023-09-19T14:12:46;99575.09;;;21.79
82297;BMP280;71899;51.992;8.648;2023-09-19T14:15:13;99570.44;;;22.10
82297;BMP280;71899;51.992;8.648;2023-09-19T14:17:39;99582.81;;;22.32
82297;BMP280;71899;51.992;8.648;2023-09-19T14:20:07;99573.47;;;22.72
82297;BMP280;71899;51.992;8.648;2023-09-19T14:22:35;99565.22;;;22.52
82297;BMP280;71899;51.992;8.648;2023-09-19T14:25:01;99562.16;;;22.55
82297;BMP280;71899;51.992;8.648;2023-09-19T14:27:26;99562.72;;;21.86
82297;BMP280;71899;51.992;8.648;2023-09-19T14:29:51;99569.47;;;21.59
82297;BMP280;71899;51.992;8.648;2023-09-19T14:32:17;99575.94;;;21.79
82297;BMP280;71899;51.992;8.648;2023-09-19T14:34:43;99578.72;;;20.88
82297;BMP280;71899;51.992;8.648;2023-09-19T14:37:09;99571.28;;;21.06
82297;BMP280;71899;51.992;8.648;2023-09-19T14:39:36;99564.13;;;21.07
82297;BMP280;71899;51.992;8.648;2023-09-19T14:42:04;99569.63;;;20.83
82297;BMP280;71899;51.992;8.648;2023-09-19T14:44:29;99571.94;;;20.55
82297;BMP280;71899;51.992;8.648;2023-09-19T14:46:55;99569.63;;;20.29
82297;BMP280;71899;51.992;8.648;2023-09-19T14:49:20;99569.63;;;20.29
82297;BMP280;71899;51.992;8.648;2023-09-19T14:51:46;99564.13;;;20.31
82297;BMP280;71899;51.992;8.648;2023-09-19T14:54:12;99553.19;;;20.56